sensor_id;sensor_type;location;lat;lon;timestamp;P1;durP1;ratioP1;P2;durP2;ratioP2
23302;SDS011;11820;48.738;9.092;2023-08-06T00:00:27;2.27;;;2.07;;
23302;SDS011;11820;48.738;9.092;2023-08-06T00:02:52;2.30;;;2.17;;
23302;SDS011;11820;48.738;9.092;2023-08-06T00:05:18;2.43;;;2.13;;
23302;SDS011;11820;48.738;9.092;2023-08-06T00:07:45;3.43;;;2.57;;
23302;SDS011;11820;48.738;9.092;2023-08-06T00:10:11;2.77;;;1.90;;
23302;SDS011;11820;48.738;9.092;2023-08-06T00:12:36;3.23;;;2.50;;
23302;SDS011;11820;48.738;9.092;2023-08-06T00:15:01;3.10;;;2.50;;
23302;SDS011;11820;48.738;9.092;2023-08-06T00:17:27;3.50;;;1.93;;
23302;SDS011;11820;48.738;9.092;2023-08-06T00:19:52;3.40;;;2.20;;
23302;SDS011;11820;48.738;9.092;2023-08-06T00:22:17;3.30;;;2.40;;
23302;SDS011;11820;48.738;9.092;2023-08-06T00:24:43;4.60;;;2.60;;
23302;SDS011;11820;48.738;9.092;2023-08-06T00:27:08;3.90;;;2.23;;
23302;SDS011;11820;48.738;9.092;2023-08-06T00:29:33;2.17;;;1.90;;
23302;SDS011;11820;48.738;9.092;2023-08-06T00:31:59;2.30;;;2.13;;
23302;SDS011;11820;48.738;9.092;2023-08-06T00:34:24;2.47;;;1.87;;
23302;SDS011;11820;48.738;9.092;2023-08-06T00:36:49;2.67;;;1.93;;
23302;SDS011;11820;48.738;9.092;2023-08-06T00:39:15;2.37;;;1.97;;
23302;SDS011;11820;48.738;9.092;2023-08-06T00:41:40;3.00;;;1.70;;
23302;SDS011;11820;48.738;9.092;2023-08-06T00:44:05;2.03;;;1.70;;
23302;SDS011;11820;48.738;9.092;2023-08-06T00:46:31;3.53;;;1.80;;
23302;SDS011;11820;48.738;9.092;2023-08-06T00:48:58;2.10;;;1.90;;
23302;SDS011;11820;48.738;9.092;2023-08-06T00:51:24;3.47;;;1.90;;
23302;SDS011;11820;48.738;9.092;2023-08-06T00:53:50;2.03;;;1.93;;
23302;SDS011;11820;48.738;9.092;2023-08-06T00:56:17;3.73;;;2.03;;
23302;SDS011;11820;48.738;9.092;2023-08-06T00:58:44;2.67;;;1.97;;
23302;SDS011;11820;48.738;9.092;2023-08-06T01:01:10;2.77;;;1.87;;
23302;SDS011;11820;48.738;9.092;2023-08-06T01:03:35;2.70;;;2.50;;
23302;SDS011;11820;48.738;9.092;2023-08-06T01:06:01;2.77;;;2.40;;
23302;SDS011;11820;48.738;9.092;2023-08-06T01:08:43;3.20;;;2.60;;
23302;SDS011;11820;48.738;9.092;2023-08-06T01:14:06;2.63;;;2.00;;
23302;SDS011;11820;48.738;9.092;2023-08-06T01:16:37;3.13;;;2.10;;
23302;SDS011;11820;48.738;9.092;2023-08-06T01:19:05;2.00;;;1.77;;
23302;SDS011;11820;48.738;9.092;2023-08-06T01:21:40;3.13;;;2.07;;
23302;SDS011;11820;48.738;9.092;2023-08-06T01:24:05;3.10;;;1.80;;
23302;SDS011;11820;48.738;9.092;2023-08-06T01:26:33;4.30;;;2.23;;
23302;SDS011;11820;48.738;9.092;2023-08-06T01:31:41;2.00;;;1.73;;
23302;SDS011;11820;48.738;9.092;2023-08-06T01:34:20;3.93;;;2.10;;
23302;SDS011;11820;48.738;9.092;2023-08-06T01:36:47;3.17;;;2.00;;
23302;SDS011;11820;48.738;9.092;2023-08-06T01:39:12;2.50;;;2.03;;
23302;SDS011;11820;48.738;9.092;2023-08-06T01:41:38;2.20;;;2.00;;
23302;SDS011;11820;48.738;9.092;2023-08-06T01:44:03;2.20;;;1.90;;
23302;SDS011;11820;48.738;9.092;2023-08-06T01:46:29;2.53;;;1.93;;
23302;SDS011;11820;48.738;9.092;2023-08-06T01:48:54;4.33;;;2.00;;
23302;SDS011;11820;48.738;9.092;2023-08-06T01:51:19;2.47;;;1.93;;
23302;SDS011;11820;48.738;9.092;2023-08-06T01:53:45;2.40;;;2.00;;
23302;SDS011;11820;48.738;9.092;2023-08-06T01:56:10;3.33;;;1.90;;
23302;SDS011;11820;48.738;9.092;2023-08-06T01:58:35;3.47;;;2.23;;
23302;SDS011;11820;48.738;9.092;2023-08-06T02:01:01;2.30;;;2.10;;
23302;SDS011;11820;48.738;9.092;2023-08-06T02:03:27;2.47;;;2.10;;
23302;SDS011;11820;48.738;9.092;2023-08-06T02:05:52;2.77;;;2.07;;
23302;SDS011;11820;48.738;9.092;2023-08-06T02:08:17;1.90;;;1.80;;
23302;SDS011;11820;48.738;9.092;2023-08-06T02:10:43;2.77;;;1.87;;
23302;SDS011;11820;48.738;9.092;2023-08-06T02:13:09;2.30;;;1.60;;
23302;SDS011;11820;48.738;9.092;2023-08-06T02:15:34;3.23;;;2.10;;
23302;SDS011;11820;48.738;9.092;2023-08-06T02:18:00;1.97;;;1.77;;
23302;SDS011;11820;48.738;9.092;2023-08-06T02:20:25;3.63;;;2.00;;
23302;SDS011;11820;48.738;9.092;2023-08-06T02:22:51;3.83;;;1.80;;
23302;SDS011;11820;48.738;9.092;2023-08-06T02:25:16;2.10;;;1.90;;
23302;SDS011;11820;48.738;9.092;2023-08-06T02:27:41;2.93;;;2.07;;
23302;SDS011;11820;48.738;9.092;2023-08-06T02:30:06;1.93;;;1.83;;
23302;SDS011;11820;48.738;9.092;2023-08-06T02:32:32;2.07;;;1.83;;
23302;SDS011;11820;48.738;9.092;2023-08-06T02:35:00;2.63;;;1.90;;
23302;SDS011;11820;48.738;9.092;2023-08-06T02:37:26;2.40;;;2.20;;
23302;SDS011;11820;48.738;9.092;2023-08-06T02:39:51;4.00;;;2.20;;
23302;SDS011;11820;48.738;9.092;2023-08-06T02:42:16;2.70;;;1.80;;
23302;SDS011;11820;48.738;9.092;2023-08-06T02:44:42;2.20;;;1.93;;
23302;SDS011;11820;48.738;9.092;2023-08-06T02:47:07;2.03;;;1.70;;
23302;SDS011;11820;48.738;9.092;2023-08-06T02:49:32;2.07;;;1.80;;
23302;SDS011;11820;48.738;9.092;2023-08-06T02:51:57;6.63;;;1.90;;
23302;SDS011;11820;48.738;9.092;2023-08-06T02:54:23;2.17;;;1.87;;
23302;SDS011;11820;48.738;9.092;2023-08-06T02:56:48;2.73;;;2.20;;
23302;SDS011;11820;48.738;9.092;2023-08-06T02:59:14;2.90;;;1.90;;
23302;SDS011;11820;48.738;9.092;2023-08-06T03:01:39;4.30;;;1.77;;
23302;SDS011;11820;48.738;9.092;2023-08-06T03:04:05;2.43;;;1.70;;
23302;SDS011;11820;48.738;9.092;2023-08-06T03:06:30;3.10;;;1.90;;
23302;SDS011;11820;48.738;9.092;2023-08-06T03:08:56;3.60;;;1.90;;
23302;SDS011;11820;48.738;9.092;2023-08-06T03:11:21;2.57;;;1.70;;
23302;SDS011;11820;48.738;9.092;2023-08-06T03:13:47;2.20;;;2.00;;
23302;SDS011;11820;48.738;9.092;2023-08-06T03:16:12;2.47;;;1.70;;
23302;SDS011;11820;48.738;9.092;2023-08-06T03:18:38;2.10;;;1.73;;
23302;SDS011;11820;48.738;9.092;2023-08-06T03:21:04;2.47;;;1.90;;
23302;SDS011;11820;48.738;9.092;2023-08-06T03:23:29;3.53;;;2.03;;
23302;SDS011;11820;48.738;9.092;2023-08-06T03:25:54;2.83;;;1.97;;
23302;SDS011;11820;48.738;9.092;2023-08-06T03:28:20;4.33;;;1.90;;
23302;SDS011;11820;48.738;9.092;2023-08-06T03:30:45;2.40;;;1.50;;
23302;SDS011;11820;48.738;9.092;2023-08-06T03:33:10;9.97;;;2.03;;
23302;SDS011;11820;48.738;9.092;2023-08-06T03:35:36;2.50;;;1.53;;
23302;SDS011;11820;48.738;9.092;2023-08-06T03:38:01;3.70;;;1.60;;
23302;SDS011;11820;48.738;9.092;2023-08-06T03:40:26;5.40;;;2.77;;
23302;SDS011;11820;48.738;9.092;2023-08-06T03:42:52;2.07;;;1.83;;
23302;SDS011;11820;48.738;9.092;2023-08-06T03:45:17;2.10;;;1.70;;
23302;SDS011;11820;48.738;9.092;2023-08-06T03:47:42;2.63;;;1.70;;
23302;SDS011;11820;48.738;9.092;2023-08-06T03:50:08;2.03;;;1.70;;
23302;SDS011;11820;48.738;9.092;2023-08-06T03:52:33;3.30;;;1.60;;
23302;SDS011;11820;48.738;9.092;2023-08-06T03:54:59;4.67;;;2.10;;
23302;SDS011;11820;48.738;9.092;2023-08-06T03:57:24;2.67;;;1.53;;
23302;SDS011;11820;48.738;9.092;2023-08-06T03:59:49;3.90;;;1.90;;
23302;SDS011;11820;48.738;9.092;2023-08-06T04:02:15;1.93;;;1.70;;
23302;SDS011;11820;48.738;9.092;2023-08-06T04:04:40;2.93;;;1.97;;
23302;SDS011;11820;48.738;9.092;2023-08-06T04:07:05;2.10;;;1.67;;
23302;SDS011;11820;48.738;9.092;2023-08-06T04:09:31;4.07;;;1.80;;
23302;SDS011;11820;48.738;9.092;2023-08-06T04:11:56;5.23;;;1.90;;
23302;SDS011;11820;48.738;9.092;2023-08-06T04:14:23;2.03;;;1.83;;
23302;SDS011;11820;48.738;9.092;2023-08-06T04:16:48;2.90;;;1.70;;
23302;SDS011;11820;48.738;9.092;2023-08-06T04:19:14;2.97;;;1.70;;
23302;SDS011;11820;48.738;9.092;2023-08-06T04:21:39;3.57;;;2.07;;
23302;SDS011;11820;48.738;9.092;2023-08-06T04:24:04;3.07;;;1.70;;
23302;SDS011;11820;48.738;9.092;2023-08-06T04:26:30;3.50;;;1.70;;
23302;SDS011;11820;48.738;9.092;2023-08-06T04:28:55;4.03;;;1.93;;
23302;SDS011;11820;48.738;9.092;2023-08-06T04:31:21;2.40;;;1.50;;
23302;SDS011;11820;48.738;9.092;2023-08-06T04:33:46;2.27;;;1.60;;
23302;SDS011;11820;48.738;9.092;2023-08-06T04:36:12;4.00;;;1.50;;
23302;SDS011;11820;48.738;9.092;2023-08-06T04:38:37;1.43;;;1.33;;
23302;SDS011;11820;48.738;9.092;2023-08-06T04:41:03;1.80;;;1.60;;
23302;SDS011;11820;48.738;9.092;2023-08-06T04:43:29;2.63;;;1.50;;
23302;SDS011;11820;48.738;9.092;2023-08-06T04:45:54;1.80;;;1.50;;
23302;SDS011;11820;48.738;9.092;2023-08-06T04:48:20;2.60;;;1.70;;
23302;SDS011;11820;48.738;9.092;2023-08-06T04:50:46;3.00;;;1.60;;
23302;SDS011;11820;48.738;9.092;2023-08-06T04:53:12;3.73;;;1.53;;
23302;SDS011;11820;48.738;9.092;2023-08-06T04:55:38;2.77;;;1.60;;
23302;SDS011;11820;48.738;9.092;2023-08-06T04:58:04;2.47;;;1.50;;
23302;SDS011;11820;48.738;9.092;2023-08-06T05:00:29;3.13;;;1.53;;
23302;SDS011;11820;48.738;9.092;2023-08-06T05:02:55;3.17;;;1.50;;
23302;SDS011;11820;48.738;9.092;2023-08-06T05:05:20;1.67;;;1.40;;
23302;SDS011;11820;48.738;9.092;2023-08-06T05:07:49;4.07;;;1.70;;
23302;SDS011;11820;48.738;9.092;2023-08-06T05:10:15;1.30;;;1.20;;
23302;SDS011;11820;48.738;9.092;2023-08-06T05:12:40;2.60;;;1.47;;
23302;SDS011;11820;48.738;9.092;2023-08-06T05:15:06;1.20;;;1.03;;
23302;SDS011;11820;48.738;9.092;2023-08-06T05:17:32;4.07;;;1.43;;
23302;SDS011;11820;48.738;9.092;2023-08-06T05:19:57;2.90;;;1.47;;
23302;SDS011;11820;48.738;9.092;2023-08-06T05:22:23;3.30;;;1.43;;
23302;SDS011;11820;48.738;9.092;2023-08-06T05:24:48;2.50;;;1.23;;
23302;SDS011;11820;48.738;9.092;2023-08-06T05:27:14;1.77;;;1.20;;
23302;SDS011;11820;48.738;9.092;2023-08-06T05:29:39;1.70;;;0.93;;
23302;SDS011;11820;48.738;9.092;2023-08-06T05:32:04;1.83;;;1.03;;
23302;SDS011;11820;48.738;9.092;2023-08-06T05:34:30;3.47;;;1.20;;
23302;SDS011;11820;48.738;9.092;2023-08-06T05:36:55;4.13;;;0.93;;
23302;SDS011;11820;48.738;9.092;2023-08-06T05:39:21;1.80;;;0.80;;
23302;SDS011;11820;48.738;9.092;2023-08-06T05:41:46;2.60;;;0.80;;
23302;SDS011;11820;48.738;9.092;2023-08-06T05:44:11;1.30;;;0.70;;
23302;SDS011;11820;48.738;9.092;2023-08-06T05:46:36;1.07;;;0.70;;
23302;SDS011;11820;48.738;9.092;2023-08-06T05:49:02;1.70;;;1.20;;
23302;SDS011;11820;48.738;9.092;2023-08-06T05:51:27;2.33;;;0.83;;
23302;SDS011;11820;48.738;9.092;2023-08-06T05:53:53;0.90;;;0.70;;
23302;SDS011;11820;48.738;9.092;2023-08-06T05:56:18;3.80;;;1.00;;
23302;SDS011;11820;48.738;9.092;2023-08-06T05:58:44;1.27;;;0.87;;
23302;SDS011;11820;48.738;9.092;2023-08-06T06:01:11;2.10;;;0.90;;
23302;SDS011;11820;48.738;9.092;2023-08-06T06:03:36;1.03;;;0.70;;
23302;SDS011;11820;48.738;9.092;2023-08-06T06:06:02;1.23;;;0.63;;
23302;SDS011;11820;48.738;9.092;2023-08-06T06:08:27;1.40;;;0.77;;
23302;SDS011;11820;48.738;9.092;2023-08-06T06:10:53;2.20;;;0.70;;
23302;SDS011;11820;48.738;9.092;2023-08-06T06:13:18;1.97;;;0.83;;
23302;SDS011;11820;48.738;9.092;2023-08-06T06:15:43;0.83;;;0.60;;
23302;SDS011;11820;48.738;9.092;2023-08-06T06:18:09;1.77;;;0.70;;
23302;SDS011;11820;48.738;9.092;2023-08-06T06:20:34;1.93;;;0.90;;
23302;SDS011;11820;48.738;9.092;2023-08-06T06:22:59;2.00;;;0.97;;
23302;SDS011;11820;48.738;9.092;2023-08-06T06:25:25;1.50;;;0.60;;
23302;SDS011;11820;48.738;9.092;2023-08-06T06:27:50;1.40;;;0.70;;
23302;SDS011;11820;48.738;9.092;2023-08-06T06:30:15;1.60;;;0.77;;
23302;SDS011;11820;48.738;9.092;2023-08-06T06:32:41;1.03;;;0.70;;
23302;SDS011;11820;48.738;9.092;2023-08-06T06:35:06;1.43;;;0.63;;
23302;SDS011;11820;48.738;9.092;2023-08-06T06:37:32;1.43;;;0.87;;
23302;SDS011;11820;48.738;9.092;2023-08-06T06:39:57;3.07;;;0.70;;
23302;SDS011;11820;48.738;9.092;2023-08-06T06:42:23;1.30;;;0.70;;
23302;SDS011;11820;48.738;9.092;2023-08-06T06:44:48;0.60;;;0.60;;
23302;SDS011;11820;48.738;9.092;2023-08-06T06:47:13;2.20;;;0.70;;
23302;SDS011;11820;48.738;9.092;2023-08-06T06:49:39;2.17;;;0.80;;
23302;SDS011;11820;48.738;9.092;2023-08-06T06:52:04;2.03;;;0.67;;
23302;SDS011;11820;48.738;9.092;2023-08-06T06:54:30;0.60;;;0.60;;
23302;SDS011;11820;48.738;9.092;2023-08-06T06:56:56;1.33;;;0.70;;
23302;SDS011;11820;48.738;9.092;2023-08-06T06:59:21;4.57;;;0.80;;
23302;SDS011;11820;48.738;9.092;2023-08-06T07:01:46;0.97;;;0.50;;
23302;SDS011;11820;48.738;9.092;2023-08-06T07:04:11;1.30;;;0.63;;
23302;SDS011;11820;48.738;9.092;2023-08-06T07:06:38;1.13;;;0.50;;
23302;SDS011;11820;48.738;9.092;2023-08-06T07:09:03;1.27;;;0.70;;
23302;SDS011;11820;48.738;9.092;2023-08-06T07:11:29;0.63;;;0.57;;
23302;SDS011;11820;48.738;9.092;2023-08-06T07:13:57;2.00;;;0.60;;
23302;SDS011;11820;48.738;9.092;2023-08-06T07:16:23;0.40;;;0.40;;
23302;SDS011;11820;48.738;9.092;2023-08-06T07:18:50;1.23;;;0.57;;
23302;SDS011;11820;48.738;9.092;2023-08-06T07:21:16;1.13;;;0.63;;
23302;SDS011;11820;48.738;9.092;2023-08-06T07:23:41;2.33;;;0.57;;
23302;SDS011;11820;48.738;9.092;2023-08-06T07:26:07;0.73;;;0.43;;
23302;SDS011;11820;48.738;9.092;2023-08-06T07:28:32;0.90;;;0.40;;
23302;SDS011;11820;48.738;9.092;2023-08-06T07:30:57;0.53;;;0.50;;
23302;SDS011;11820;48.738;9.092;2023-08-06T07:33:23;0.93;;;0.60;;
23302;SDS011;11820;48.738;9.092;2023-08-06T07:35:48;0.60;;;0.40;;
23302;SDS011;11820;48.738;9.092;2023-08-06T07:38:13;1.30;;;0.47;;
23302;SDS011;11820;48.738;9.092;2023-08-06T07:40:38;0.80;;;0.60;;
23302;SDS011;11820;48.738;9.092;2023-08-06T07:43:04;2.80;;;0.50;;
23302;SDS011;11820;48.738;9.092;2023-08-06T07:45:33;0.30;;;0.30;;
23302;SDS011;11820;48.738;9.092;2023-08-06T07:48:00;0.30;;;0.30;;
23302;SDS011;11820;48.738;9.092;2023-08-06T07:50:25;2.10;;;0.50;;
23302;SDS011;11820;48.738;9.092;2023-08-06T07:52:51;0.67;;;0.30;;
23302;SDS011;11820;48.738;9.092;2023-08-06T07:55:16;1.07;;;0.47;;
23302;SDS011;11820;48.738;9.092;2023-08-06T07:57:41;0.87;;;0.30;;
23302;SDS011;11820;48.738;9.092;2023-08-06T08:00:07;0.90;;;0.50;;
23302;SDS011;11820;48.738;9.092;2023-08-06T08:02:32;1.43;;;0.50;;
23302;SDS011;11820;48.738;9.092;2023-08-06T08:04:58;0.40;;;0.30;;
23302;SDS011;11820;48.738;9.092;2023-08-06T08:07:23;1.23;;;0.40;;
23302;SDS011;11820;48.738;9.092;2023-08-06T08:09:48;0.73;;;0.30;;
23302;SDS011;11820;48.738;9.092;2023-08-06T08:12:14;1.47;;;0.43;;
23302;SDS011;11820;48.738;9.092;2023-08-06T08:14:39;0.37;;;0.30;;
23302;SDS011;11820;48.738;9.092;2023-08-06T08:17:05;0.50;;;0.40;;
23302;SDS011;11820;48.738;9.092;2023-08-06T08:19:31;0.20;;;0.20;;
23302;SDS011;11820;48.738;9.092;2023-08-06T08:21:57;0.37;;;0.37;;
23302;SDS011;11820;48.738;9.092;2023-08-06T08:24:23;0.53;;;0.40;;
23302;SDS011;11820;48.738;9.092;2023-08-06T08:26:51;0.67;;;0.40;;
23302;SDS011;11820;48.738;9.092;2023-08-06T08:29:17;0.50;;;0.30;;
23302;SDS011;11820;48.738;9.092;2023-08-06T08:31:44;0.70;;;0.50;;
23302;SDS011;11820;48.738;9.092;2023-08-06T08:34:10;0.57;;;0.30;;
23302;SDS011;11820;48.738;9.092;2023-08-06T08:36:35;0.30;;;0.30;;
23302;SDS011;11820;48.738;9.092;2023-08-06T08:39:00;0.30;;;0.30;;
23302;SDS011;11820;48.738;9.092;2023-08-06T08:41:29;0.90;;;0.43;;
23302;SDS011;11820;48.738;9.092;2023-08-06T08:43:56;0.30;;;0.30;;
23302;SDS011;11820;48.738;9.092;2023-08-06T08:46:25;0.30;;;0.30;;
23302;SDS011;11820;48.738;9.092;2023-08-06T08:48:54;0.63;;;0.30;;
23302;SDS011;11820;48.738;9.092;2023-08-06T08:51:20;0.57;;;0.20;;
23302;SDS011;11820;48.738;9.092;2023-08-06T08:53:46;0.30;;;0.20;;
23302;SDS011;11820;48.738;9.092;2023-08-06T08:56:13;0.20;;;0.20;;
23302;SDS011;11820;48.738;9.092;2023-08-06T08:58:39;1.40;;;0.40;;
23302;SDS011;11820;48.738;9.092;2023-08-06T09:01:05;0.20;;;0.20;;
23302;SDS011;11820;48.738;9.092;2023-08-06T09:03:32;0.30;;;0.30;;
23302;SDS011;11820;48.738;9.092;2023-08-06T09:05:59;0.83;;;0.20;;
23302;SDS011;11820;48.738;9.092;2023-08-06T09:08:27;0.37;;;0.33;;
23302;SDS011;11820;48.738;9.092;2023-08-06T09:10:59;1.10;;;0.23;;
23302;SDS011;11820;48.738;9.092;2023-08-06T09:13:26;1.27;;;0.40;;
23302;SDS011;11820;48.738;9.092;2023-08-06T09:15:52;2.07;;;0.27;;
23302;SDS011;11820;48.738;9.092;2023-08-06T09:18:24;0.57;;;0.40;;
23302;SDS011;11820;48.738;9.092;2023-08-06T09:20:54;0.57;;;0.20;;
23302;SDS011;11820;48.738;9.092;2023-08-06T09:23:19;2.30;;;0.40;;
23302;SDS011;11820;48.738;9.092;2023-08-06T09:25:45;0.20;;;0.20;;
23302;SDS011;11820;48.738;9.092;2023-08-06T09:28:10;0.30;;;0.20;;
23302;SDS011;11820;48.738;9.092;2023-08-06T09:30:36;0.20;;;0.20;;
23302;SDS011;11820;48.738;9.092;2023-08-06T09:33:03;0.20;;;0.20;;
23302;SDS011;11820;48.738;9.092;2023-08-06T09:35:29;0.57;;;0.20;;
23302;SDS011;11820;48.738;9.092;2023-08-06T09:37:56;0.30;;;0.30;;
23302;SDS011;11820;48.738;9.092;2023-08-06T09:40:41;0.40;;;0.30;;
23302;SDS011;11820;48.738;9.092;2023-08-06T09:43:07;0.97;;;0.20;;
23302;SDS011;11820;48.738;9.092;2023-08-06T09:45:36;1.50;;;0.30;;
23302;SDS011;11820;48.738;9.092;2023-08-06T09:48:06;0.40;;;0.23;;
23302;SDS011;11820;48.738;9.092;2023-08-06T09:50:33;0.30;;;0.30;;
23302;SDS011;11820;48.738;9.092;2023-08-06T09:53:02;1.97;;;0.20;;
23302;SDS011;11820;48.738;9.092;2023-08-06T09:55:30;0.47;;;0.47;;
23302;SDS011;11820;48.738;9.092;2023-08-06T09:57:58;0.43;;;0.30;;
23302;SDS011;11820;48.738;9.092;2023-08-06T10:00:24;0.20;;;0.20;;
23302;SDS011;11820;48.738;9.092;2023-08-06T10:02:50;0.73;;;0.30;;
23302;SDS011;11820;48.738;9.092;2023-08-06T10:05:19;0.20;;;0.20;;
23302;SDS011;11820;48.738;9.092;2023-08-06T10:07:46;0.57;;;0.30;;
23302;SDS011;11820;48.738;9.092;2023-08-06T10:10:12;0.30;;;0.30;;
23302;SDS011;11820;48.738;9.092;2023-08-06T10:12:40;0.50;;;0.30;;
23302;SDS011;11820;48.738;9.092;2023-08-06T10:15:09;0.40;;;0.27;;
23302;SDS011;11820;48.738;9.092;2023-08-06T10:17:37;1.90;;;0.50;;
23302;SDS011;11820;48.738;9.092;2023-08-06T10:20:07;0.33;;;0.30;;
23302;SDS011;11820;48.738;9.092;2023-08-06T10:22:34;0.40;;;0.30;;
23302;SDS011;11820;48.738;9.092;2023-08-06T10:24:59;0.30;;;0.27;;
23302;SDS011;11820;48.738;9.092;2023-08-06T10:27:30;0.20;;;0.20;;
23302;SDS011;11820;48.738;9.092;2023-08-06T10:33:03;0.20;;;0.20;;
23302;SDS011;11820;48.738;9.092;2023-08-06T10:35:30;0.43;;;0.23;;
23302;SDS011;11820;48.738;9.092;2023-08-06T10:45:52;0.20;;;0.20;;
23302;SDS011;11820;48.738;9.092;2023-08-06T10:51:02;0.33;;;0.33;;
23302;SDS011;11820;48.738;9.092;2023-08-06T10:53:29;0.50;;;0.30;;
23302;SDS011;11820;48.738;9.092;2023-08-06T10:55:55;0.27;;;0.20;;
23302;SDS011;11820;48.738;9.092;2023-08-06T10:58:20;0.33;;;0.30;;
23302;SDS011;11820;48.738;9.092;2023-08-06T11:00:46;0.30;;;0.30;;
23302;SDS011;11820;48.738;9.092;2023-08-06T11:03:11;0.30;;;0.30;;
23302;SDS011;11820;48.738;9.092;2023-08-06T11:05:36;0.70;;;0.40;;
23302;SDS011;11820;48.738;9.092;2023-08-06T11:08:02;0.50;;;0.30;;
23302;SDS011;11820;48.738;9.092;2023-08-06T11:10:27;0.30;;;0.30;;
23302;SDS011;11820;48.738;9.092;2023-08-06T11:12:53;0.20;;;0.20;;
23302;SDS011;11820;48.738;9.092;2023-08-06T11:15:19;0.30;;;0.30;;
23302;SDS011;11820;48.738;9.092;2023-08-06T11:17:45;0.70;;;0.30;;
23302;SDS011;11820;48.738;9.092;2023-08-06T11:20:11;0.23;;;0.23;;
23302;SDS011;11820;48.738;9.092;2023-08-06T11:22:37;0.20;;;0.20;;
23302;SDS011;11820;48.738;9.092;2023-08-06T11:25:03;0.20;;;0.20;;
23302;SDS011;11820;48.738;9.092;2023-08-06T11:27:30;1.03;;;0.40;;
23302;SDS011;11820;48.738;9.092;2023-08-06T11:29:55;0.57;;;0.50;;
23302;SDS011;11820;48.738;9.092;2023-08-06T11:32:20;0.73;;;0.47;;
23302;SDS011;11820;48.738;9.092;2023-08-06T11:34:46;0.70;;;0.50;;
23302;SDS011;11820;48.738;9.092;2023-08-06T11:37:13;2.37;;;0.80;;
23302;SDS011;11820;48.738;9.092;2023-08-06T11:39:46;1.40;;;0.63;;
23302;SDS011;11820;48.738;9.092;2023-08-06T11:42:35;1.93;;;0.70;;
23302;SDS011;11820;48.738;9.092;2023-08-06T11:45:01;0.80;;;0.70;;
23302;SDS011;11820;48.738;9.092;2023-08-06T11:47:29;0.50;;;0.50;;
23302;SDS011;11820;48.738;9.092;2023-08-06T11:49:54;0.70;;;0.70;;
23302;SDS011;11820;48.738;9.092;2023-08-06T11:52:20;1.50;;;0.73;;
23302;SDS011;11820;48.738;9.092;2023-08-06T11:54:59;2.67;;;0.70;;
23302;SDS011;11820;48.738;9.092;2023-08-06T11:57:32;0.73;;;0.73;;
23302;SDS011;11820;48.738;9.092;2023-08-06T12:00:04;2.40;;;0.60;;
23302;SDS011;11820;48.738;9.092;2023-08-06T12:02:31;0.90;;;0.70;;
23302;SDS011;11820;48.738;9.092;2023-08-06T12:07:46;1.50;;;1.10;;
23302;SDS011;11820;48.738;9.092;2023-08-06T12:10:14;1.17;;;1.00;;
23302;SDS011;11820;48.738;9.092;2023-08-06T12:12:40;0.90;;;0.80;;
23302;SDS011;11820;48.738;9.092;2023-08-06T12:15:06;1.17;;;0.63;;
23302;SDS011;11820;48.738;9.092;2023-08-06T12:17:33;1.13;;;0.80;;
23302;SDS011;11820;48.738;9.092;2023-08-06T12:19:59;1.20;;;0.80;;
23302;SDS011;11820;48.738;9.092;2023-08-06T12:22:24;2.20;;;0.90;;
23302;SDS011;11820;48.738;9.092;2023-08-06T12:24:50;2.40;;;0.80;;
23302;SDS011;11820;48.738;9.092;2023-08-06T12:27:15;1.57;;;1.00;;
23302;SDS011;11820;48.738;9.092;2023-08-06T12:29:42;0.80;;;0.80;;
23302;SDS011;11820;48.738;9.092;2023-08-06T12:32:09;1.03;;;0.87;;
23302;SDS011;11820;48.738;9.092;2023-08-06T12:34:35;0.60;;;0.60;;
23302;SDS011;11820;48.738;9.092;2023-08-06T12:37:01;1.20;;;1.10;;
23302;SDS011;11820;48.738;9.092;2023-08-06T12:39:27;1.57;;;0.90;;
23302;SDS011;11820;48.738;9.092;2023-08-06T12:41:53;1.17;;;0.80;;
23302;SDS011;11820;48.738;9.092;2023-08-06T12:44:19;0.73;;;0.60;;
23302;SDS011;11820;48.738;9.092;2023-08-06T12:46:45;0.97;;;0.60;;
23302;SDS011;11820;48.738;9.092;2023-08-06T12:49:10;1.03;;;0.60;;
23302;SDS011;11820;48.738;9.092;2023-08-06T12:51:35;0.87;;;0.60;;
23302;SDS011;11820;48.738;9.092;2023-08-06T12:54:00;1.40;;;0.60;;
23302;SDS011;11820;48.738;9.092;2023-08-06T12:56:26;0.77;;;0.50;;
23302;SDS011;11820;48.738;9.092;2023-08-06T12:58:51;0.80;;;0.60;;
23302;SDS011;11820;48.738;9.092;2023-08-06T13:01:16;1.30;;;1.00;;
23302;SDS011;11820;48.738;9.092;2023-08-06T13:03:42;1.33;;;0.83;;
23302;SDS011;11820;48.738;9.092;2023-08-06T13:06:07;1.37;;;0.97;;
23302;SDS011;11820;48.738;9.092;2023-08-06T13:08:34;0.77;;;0.67;;
23302;SDS011;11820;48.738;9.092;2023-08-06T13:10:59;1.13;;;0.80;;
23302;SDS011;11820;48.738;9.092;2023-08-06T13:13:25;2.93;;;0.90;;
23302;SDS011;11820;48.738;9.092;2023-08-06T13:15:51;0.90;;;0.73;;
23302;SDS011;11820;48.738;9.092;2023-08-06T13:18:17;2.20;;;0.93;;
23302;SDS011;11820;48.738;9.092;2023-08-06T13:20:42;1.03;;;0.73;;
23302;SDS011;11820;48.738;9.092;2023-08-06T13:23:08;1.90;;;0.53;;
23302;SDS011;11820;48.738;9.092;2023-08-06T13:25:33;0.90;;;0.90;;
23302;SDS011;11820;48.738;9.092;2023-08-06T13:28:02;0.73;;;0.60;;
23302;SDS011;11820;48.738;9.092;2023-08-06T13:30:28;1.23;;;0.80;;
23302;SDS011;11820;48.738;9.092;2023-08-06T13:32:53;1.53;;;0.73;;
23302;SDS011;11820;48.738;9.092;2023-08-06T13:35:21;0.70;;;0.70;;
23302;SDS011;11820;48.738;9.092;2023-08-06T13:37:47;0.77;;;0.63;;
23302;SDS011;11820;48.738;9.092;2023-08-06T13:40:13;2.37;;;0.90;;
23302;SDS011;11820;48.738;9.092;2023-08-06T13:42:38;0.90;;;0.60;;
23302;SDS011;11820;48.738;9.092;2023-08-06T13:45:04;0.67;;;0.53;;
23302;SDS011;11820;48.738;9.092;2023-08-06T13:47:30;0.63;;;0.53;;
23302;SDS011;11820;48.738;9.092;2023-08-06T13:49:56;0.50;;;0.50;;
23302;SDS011;11820;48.738;9.092;2023-08-06T13:52:21;1.47;;;0.60;;
23302;SDS011;11820;48.738;9.092;2023-08-06T13:54:46;0.70;;;0.60;;
23302;SDS011;11820;48.738;9.092;2023-08-06T13:57:11;2.17;;;0.80;;
23302;SDS011;11820;48.738;9.092;2023-08-06T13:59:37;3.67;;;0.70;;
23302;SDS011;11820;48.738;9.092;2023-08-06T14:02:03;0.60;;;0.60;;
23302;SDS011;11820;48.738;9.092;2023-08-06T14:04:28;0.63;;;0.63;;
23302;SDS011;11820;48.738;9.092;2023-08-06T14:06:54;0.60;;;0.50;;
23302;SDS011;11820;48.738;9.092;2023-08-06T14:09:19;0.70;;;0.70;;
23302;SDS011;11820;48.738;9.092;2023-08-06T14:11:45;1.03;;;0.30;;
23302;SDS011;11820;48.738;9.092;2023-08-06T14:14:10;0.80;;;0.63;;
23302;SDS011;11820;48.738;9.092;2023-08-06T14:16:36;0.70;;;0.47;;
23302;SDS011;11820;48.738;9.092;2023-08-06T14:19:02;0.50;;;0.50;;
23302;SDS011;11820;48.738;9.092;2023-08-06T14:21:27;3.00;;;0.70;;
23302;SDS011;11820;48.738;9.092;2023-08-06T14:23:53;0.73;;;0.60;;
23302;SDS011;11820;48.738;9.092;2023-08-06T14:26:18;1.23;;;0.67;;
23302;SDS011;11820;48.738;9.092;2023-08-06T14:28:43;0.50;;;0.50;;
23302;SDS011;11820;48.738;9.092;2023-08-06T14:31:08;0.50;;;0.50;;
23302;SDS011;11820;48.738;9.092;2023-08-06T14:33:34;0.90;;;0.60;;
23302;SDS011;11820;48.738;9.092;2023-08-06T14:35:59;1.87;;;1.03;;
23302;SDS011;11820;48.738;9.092;2023-08-06T14:38:25;0.53;;;0.40;;
23302;SDS011;11820;48.738;9.092;2023-08-06T14:40:50;2.30;;;0.70;;
23302;SDS011;11820;48.738;9.092;2023-08-06T14:43:15;0.87;;;0.70;;
23302;SDS011;11820;48.738;9.092;2023-08-06T14:45:41;0.90;;;0.70;;
23302;SDS011;11820;48.738;9.092;2023-08-06T14:48:06;1.33;;;0.90;;
23302;SDS011;11820;48.738;9.092;2023-08-06T14:50:32;1.40;;;0.80;;
23302;SDS011;11820;48.738;9.092;2023-08-06T14:52:58;1.40;;;0.70;;
23302;SDS011;11820;48.738;9.092;2023-08-06T14:55:27;1.67;;;0.80;;
23302;SDS011;11820;48.738;9.092;2023-08-06T14:57:52;0.93;;;0.60;;
23302;SDS011;11820;48.738;9.092;2023-08-06T15:00:18;0.70;;;0.70;;
23302;SDS011;11820;48.738;9.092;2023-08-06T15:02:44;0.70;;;0.60;;